Time;durP1;ratioP1;P1;durP2;ratioP2;P2;SDS_P1;SDS_P2;PMS_P1;PMS_P2;Temp;Humidity;BMP_temperature;BMP_pressure;BME280_temperature;BME280_humidity;BME280_pressure;Samples;Min_cycle;Max_cycle;Signal;HPM_P1;HPM_P2
2021/01/02 00:00:51;;;;;;;16.35;10.05;;;4.70;99.90;;;;;;5093195;28;20639;-77
2021/01/02 00:03:37;;;;;;;11.35;9.70;;;4.70;99.90;;;;;;5093430;28;20263;-77
2021/01/02 00:06:09;;;;;;;12.73;9.75;;;4.70;99.90;;;;;;5093331;28;20291;-76
2021/01/02 00:08:37;;;;;;;10.00;8.98;;;4.70;99.90;;;;;;5093159;28;20221;-76
2021/01/02 00:11:21;;;;;;;11.32;8.57;;;4.60;99.90;;;;;;5093147;28;20272;-77
2021/01/02 00:14:06;;;;;;;13.43;9.13;;;4.60;99.90;;;;;;5093050;28;20195;-77
2021/01/02 00:16:46;;;;;;;12.75;9.70;;;4.50;99.90;;;;;;5093183;28;20234;-78
2021/01/02 00:19:24;;;;;;;10.13;8.50;;;4.60;99.90;;;;;;5092947;28;20204;-78
2021/01/02 00:22:01;;;;;;;11.30;9.10;;;4.60;99.90;;;;;;5093098;28;20279;-78
2021/01/02 00:24:38;;;;;;;13.55;9.05;;;4.60;99.90;;;;;;5093003;28;20280;-78
2021/01/02 00:27:10;;;;;;;7.90;7.15;;;4.50;99.90;;;;;;5087684;28;20216;-78
2021/01/02 00:30:00;;;;;;;10.95;8.48;;;4.60;99.90;;;;;;5092780;28;20172;-78
2021/01/02 00:32:39;;;;;;;8.25;7.35;;;4.50;99.90;;;;;;5092855;28;20263;-78
2021/01/02 00:35:12;;;;;;;10.50;7.20;;;4.50;99.90;;;;;;5092816;28;20235;-77
2021/01/02 00:37:42;;;;;;;8.82;7.45;;;4.50;99.90;;;;;;5092691;28;20793;-78
2021/01/02 00:40:13;;;;;;;9.13;7.78;;;4.50;99.90;;;;;;5083470;28;20244;-78
2021/01/02 00:42:41;;;;;;;12.70;7.28;;;4.50;99.90;;;;;;5092738;28;20181;-78
2021/01/02 00:45:09;;;;;;;13.20;7.10;;;4.50;99.90;;;;;;5095405;28;20280;-79
2021/01/02 00:47:37;;;;;;;8.35;7.20;;;4.60;99.90;;;;;;5092495;28;20275;-78
2021/01/02 00:50:05;;;;;;;12.48;7.63;;;4.50;99.90;;;;;;5092567;28;20275;-78
2021/01/02 00:53:18;;;;;;;10.32;7.57;;;4.60;99.90;;;;;;5092713;28;20275;-78
2021/01/02 00:56:06;;;;;;;8.77;6.35;;;4.60;99.90;;;;;;5080161;28;20299;-79
2021/01/02 00:59:03;;;;;;;7.65;6.47;;;4.50;99.90;;;;;;5091952;28;20211;-78
2021/01/02 01:01:36;;;;;;;6.90;6.22;;;4.50;99.90;;;;;;5078572;28;20279;-79
2021/01/02 01:04:26;;;;;;;7.22;6.53;;;4.40;99.90;;;;;;5093121;28;20216;-79
2021/01/02 01:06:55;;;;;;;7.65;5.80;;;4.50;99.90;;;;;;5092853;28;20204;-78
2021/01/02 01:09:24;;;;;;;7.78;6.65;;;4.50;99.90;;;;;;5093285;28;20181;-79
2021/01/02 01:11:54;;;;;;;10.38;6.78;;;4.50;99.90;;;;;;5093535;28;20185;-79
2021/01/02 01:14:21;;;;;;;8.07;6.10;;;4.50;99.90;;;;;;5093484;28;20566;-79
2021/01/02 01:16:51;;;;;;;6.72;5.95;;;4.50;99.90;;;;;;5093766;28;20584;-79
2021/01/02 01:19:19;;;;;;;5.82;5.25;;;4.50;99.90;;;;;;5073782;28;20192;-79
2021/01/02 01:21:50;;;;;;;5.78;5.20;;;4.50;99.90;;;;;;5080236;28;20196;-79
2021/01/02 01:24:24;;;;;;;5.40;4.90;;;4.40;99.90;;;;;;5092566;28;20657;-79
2021/01/02 01:27:04;;;;;;;5.53;4.97;;;4.40;99.90;;;;;;5092205;28;20211;-80
2021/01/02 01:29:41;;;;;;;6.97;5.40;;;4.30;99.90;;;;;;5092144;28;20180;-79
2021/01/02 01:32:08;;;;;;;6.82;5.15;;;4.20;99.90;;;;;;5092267;28;20283;-79
2021/01/02 01:34:36;;;;;;;6.43;5.82;;;4.00;99.90;;;;;;5092568;28;20267;-79
2021/01/02 01:37:03;;;;;;;10.55;5.07;;;3.90;99.90;;;;;;5092510;28;20269;-79
2021/01/02 01:39:32;;;;;;;6.25;5.65;;;3.90;99.90;;;;;;5092140;28;20224;-79
2021/01/02 01:42:00;;;;;;;5.68;4.65;;;3.80;99.90;;;;;;5092670;28;20189;-79
2021/01/02 01:44:54;;;;;;;6.43;4.75;;;3.70;99.90;;;;;;5092190;28;20735;-80
2021/01/02 01:47:24;;;;;;;6.38;5.03;;;3.50;99.90;;;;;;5072260;28;20225;-78
2021/01/02 01:50:13;;;;;;;4.85;4.25;;;3.50;99.90;;;;;;5072150;28;20189;-79
2021/01/02 01:53:03;;;;;;;5.63;4.90;;;3.40;99.90;;;;;;5074742;28;20244;-79
2021/01/02 01:55:35;;;;;;;4.55;4.15;;;3.30;99.90;;;;;;5092552;28;20281;-79
2021/01/02 01:58:10;;;;;;;7.60;4.63;;;3.20;99.90;;;;;;5092503;28;20283;-79
2021/01/02 02:00:44;;;;;;;4.35;3.95;;;3.10;99.90;;;;;;5092461;28;20192;-79
2021/01/02 02:03:21;;;;;;;4.97;4.43;;;3.00;99.90;;;;;;5089730;28;20190;-79
2021/01/02 02:05:54;;;;;;;5.30;4.72;;;3.00;99.90;;;;;;5092596;28;20295;-79
2021/01/02 02:08:41;;;;;;;8.27;5.20;;;2.90;99.90;;;;;;5092583;28;20718;-78
2021/01/02 02:11:19;;;;;;;6.40;5.38;;;2.90;99.90;;;;;;5096178;28;20200;-78
2021/01/02 02:13:50;;;;;;;7.05;5.32;;;2.80;99.90;;;;;;5095774;28;20192;-77
2021/01/02 02:16:19;;;;;;;8.77;6.18;;;2.70;99.90;;;;;;5096139;28;20428;-78
2021/01/02 02:18:49;;;;;;;7.30;6.60;;;2.70;99.90;;;;;;5095754;28;20279;-78
2021/01/02 02:21:27;;;;;;;7.60;6.20;;;2.70;99.90;;;;;;5095890;28;20300;-79
2021/01/02 02:24:00;;;;;;;9.65;7.78;;;2.60;99.90;;;;;;5095724;28;20188;-79
2021/01/02 02:26:35;;;;;;;9.98;7.72;;;2.60;99.90;;;;;;5095640;28;20220;-79
2021/01/02 02:29:24;;;;;;;12.02;7.43;;;2.60;99.90;;;;;;5095870;28;20188;-79
2021/01/02 02:31:55;;;;;;;12.38;8.35;;;2.50;99.90;;;;;;5095794;28;20188;-79
2021/01/02 02:34:23;;;;;;;11.57;8.38;;;2.50;99.90;;;;;;5095550;28;20279;-79
2021/01/02 02:36:49;;;;;;;13.07;9.50;;;2.40;99.90;;;;;;5095938;28;20188;-79
2021/01/02 02:39:15;;;;;;;11.68;8.88;;;2.40;99.90;;;;;;5095636;28;20248;-79
2021/01/02 02:41:47;;;;;;;13.40;9.60;;;2.40;99.90;;;;;;5095528;28;20216;-79
2021/01/02 02:44:17;;;;;;;14.07;9.30;;;2.40;99.90;;;;;;5095683;28;20283;-79
2021/01/02 02:46:44;;;;;;;16.95;9.98;;;2.30;99.90;;;;;;5114133;28;20299;-79
2021/01/02 02:49:12;;;;;;;14.57;10.68;;;2.20;99.90;;;;;;5115681;28;20293;-79
2021/01/02 02:51:46;;;;;;;16.80;11.27;;;2.20;99.90;;;;;;5115756;28;20278;-79
2021/01/02 02:54:13;;;;;;;16.48;10.60;;;2.20;99.90;;;;;;5099865;28;20321;-79
2021/01/02 02:56:39;;;;;;;15.82;11.27;;;2.20;99.90;;;;;;5095105;28;20280;-79
2021/01/02 02:59:05;;;;;;;19.25;11.95;;;2.10;99.90;;;;;;5095040;28;20275;-79
2021/01/02 03:01:32;;;;;;;15.57;10.13;;;2.10;99.90;;;;;;5094987;28;20584;-79
2021/01/02 03:03:59;;;;;;;16.20;11.65;;;2.10;99.90;;;;;;5095191;28;20245;-79
2021/01/02 03:06:29;;;;;;;19.55;12.02;;;2.10;99.90;;;;;;5094827;28;20219;-79
2021/01/02 03:08:56;;;;;;;18.73;11.90;;;2.00;99.90;;;;;;5094966;28;20281;-78
2021/01/02 03:11:24;;;;;;;13.68;11.30;;;2.00;99.90;;;;;;5094638;28;20734;-78
2021/01/02 03:13:50;;;;;;;18.65;13.20;;;2.00;99.90;;;;;;5094961;28;20188;-77
2021/01/02 03:16:17;;;;;;;17.30;11.63;;;1.90;99.90;;;;;;5094997;28;20279;-79
2021/01/02 03:18:44;;;;;;;19.75;12.73;;;1.90;99.90;;;;;;5094809;28;20184;-79
2021/01/02 03:21:10;;;;;;;18.73;12.77;;;1.90;99.90;;;;;;5094117;28;20216;-79
2021/01/02 03:23:46;;;;;;;22.35;14.00;;;1.90;99.90;;;;;;5094630;28;20212;-79
2021/01/02 03:26:12;;;;;;;19.88;12.90;;;1.80;99.90;;;;;;5094546;28;20215;-79
2021/01/02 03:28:38;;;;;;;19.45;13.02;;;1.80;99.90;;;;;;5094530;28;20228;-80
2021/01/02 03:31:04;;;;;;;20.20;13.88;;;1.70;99.90;;;;;;5094626;28;20279;-80
2021/01/02 03:33:31;;;;;;;20.08;13.20;;;1.80;99.90;;;;;;5094243;28;20256;-80
2021/01/02 03:35:58;;;;;;;19.92;14.10;;;1.70;99.90;;;;;;5094389;28;20246;-80
2021/01/02 03:38:25;;;;;;;20.25;13.40;;;1.70;99.90;;;;;;5094236;28;20211;-80
2021/01/02 03:40:51;;;;;;;20.42;13.60;;;1.70;99.90;;;;;;5091862;28;20428;-78
2021/01/02 03:43:17;;;;;;;28.03;13.77;;;1.70;99.90;;;;;;5093955;28;20663;-78
2021/01/02 03:45:43;;;;;;;20.48;14.73;;;1.60;99.90;;;;;;5104735;28;20536;-78
2021/01/02 03:48:09;;;;;;;27.40;14.25;;;1.60;99.90;;;;;;5114555;28;20226;-78
2021/01/02 03:50:36;;;;;;;21.60;13.90;;;1.60;99.90;;;;;;5114333;28;20702;-78
2021/01/02 03:53:02;;;;;;;19.90;12.55;;;1.60;99.90;;;;;;5108392;28;20275;-78
2021/01/02 03:55:28;;;;;;;22.92;13.60;;;1.60;99.90;;;;;;5094007;28;20224;-78
2021/01/02 03:57:54;;;;;;;21.20;14.00;;;1.60;99.90;;;;;;5093907;28;20193;-78
2021/01/02 04:00:21;;;;;;;23.40;15.38;;;1.60;99.90;;;;;;5093966;28;20287;-78
2021/01/02 04:02:47;;;;;;;25.42;14.85;;;1.60;99.90;;;;;;5094032;28;20188;-79
2021/01/02 04:05:14;;;;;;;20.48;14.55;;;1.60;99.90;;;;;;5093869;28;20185;-79
2021/01/02 04:07:40;;;;;;;23.50;14.38;;;1.60;99.90;;;;;;5093563;28;20248;-79
2021/01/02 04:10:08;;;;;;;20.63;13.80;;;1.60;99.90;;;;;;5093635;28;20215;-79
2021/01/02 04:12:34;;;;;;;23.33;15.38;;;1.60;99.90;;;;;;5093342;28;20228;-80
2021/01/02 04:15:00;;;;;;;21.60;13.77;;;1.60;99.90;;;;;;5093803;28;20224;-80
2021/01/02 04:17:26;;;;;;;22.98;14.38;;;1.70;99.90;;;;;;5093539;28;20280;-78
2021/01/02 04:19:53;;;;;;;23.02;14.65;;;1.70;99.90;;;;;;5093636;28;20193;-78
2021/01/02 04:22:19;;;;;;;23.42;15.27;;;1.70;99.90;;;;;;5093435;28;20184;-78
2021/01/02 04:24:46;;;;;;;23.67;15.00;;;1.80;99.90;;;;;;5093275;28;20759;-78
2021/01/02 04:27:12;;;;;;;20.65;14.77;;;1.80;99.90;;;;;;5093180;28;20759;-78
2021/01/02 04:29:38;;;;;;;23.13;13.90;;;1.90;99.90;;;;;;5093475;28;20365;-78
2021/01/02 04:32:06;;;;;;;17.85;12.93;;;1.90;99.90;;;;;;5092371;28;20727;-80
2021/01/02 04:34:32;;;;;;;18.55;14.52;;;2.00;99.90;;;;;;5093190;28;20231;-79
2021/01/02 04:36:58;;;;;;;21.15;14.30;;;2.00;99.90;;;;;;5093112;28;20390;-79
2021/01/02 04:39:24;;;;;;;20.05;14.52;;;2.10;99.90;;;;;;5093002;28;20753;-80
2021/01/02 04:41:51;;;;;;;21.48;14.23;;;2.00;99.90;;;;;;5093337;28;20212;-80
2021/01/02 04:44:17;;;;;;;20.42;12.95;;;2.10;99.90;;;;;;5093243;28;20276;-80
2021/01/02 04:46:45;;;;;;;22.08;15.07;;;2.10;99.90;;;;;;5112242;28;20302;-80
2021/01/02 04:49:11;;;;;;;23.05;15.25;;;2.20;99.90;;;;;;5113500;28;20524;-80
2021/01/02 04:51:37;;;;;;;20.02;13.82;;;2.20;99.90;;;;;;5113182;28;20198;-80
2021/01/02 04:54:05;;;;;;;21.08;14.13;;;2.20;99.90;;;;;;5098691;28;20224;-80
2021/01/02 04:56:32;;;;;;;19.83;13.93;;;2.30;99.90;;;;;;5092990;28;20193;-81
2021/01/02 04:59:01;;;;;;;18.70;13.65;;;2.40;99.90;;;;;;5093036;28;20275;-80
2021/01/02 05:01:28;;;;;;;21.85;13.85;;;2.40;99.90;;;;;;5092836;28;20203;-80
2021/01/02 05:03:55;;;;;;;19.73;13.95;;;2.50;99.90;;;;;;5092874;28;20223;-80
2021/01/02 05:06:22;;;;;;;19.73;13.30;;;2.50;99.90;;;;;;5092506;28;20639;-80
2021/01/02 05:08:49;;;;;;;24.15;14.95;;;2.60;99.90;;;;;;5093107;28;20578;-80
2021/01/02 05:11:17;;;;;;;20.85;15.65;;;2.60;99.90;;;;;;5092835;28;20338;-80
2021/01/02 05:13:43;;;;;;;20.95;13.93;;;2.70;99.90;;;;;;5092998;28;20189;-80
2021/01/02 05:16:20;;;;;;;19.67;13.70;;;2.70;99.90;;;;;;5092790;28;20289;-80
2021/01/02 05:18:56;;;;;;;20.15;14.00;;;2.70;99.90;;;;;;5092867;28;20192;-79
2021/01/02 05:21:23;;;;;;;18.63;13.70;;;2.70;99.90;;;;;;5092390;28;20196;-79
2021/01/02 05:24:10;;;;;;;20.98;14.10;;;2.80;99.90;;;;;;5092898;28;20579;-79
2021/01/02 05:26:37;;;;;;;21.88;14.30;;;2.80;99.90;;;;;;5092547;28;20295;-79
2021/01/02 05:29:20;;;;;;;22.38;15.02;;;2.70;99.90;;;;;;5092932;28;20291;-79
2021/01/02 05:31:50;;;;;;;19.77;13.95;;;2.80;99.90;;;;;;5092735;28;20192;-79
2021/01/02 05:34:18;;;;;;;21.40;13.38;;;2.80;99.90;;;;;;5092777;28;20184;-79
2021/01/02 05:36:57;;;;;;;20.52;13.90;;;2.80;99.90;;;;;;5092611;28;20242;-79
2021/01/02 05:39:34;;;;;;;23.98;15.70;;;2.80;99.90;;;;;;5092428;28;20307;-78
2021/01/02 05:42:01;;;;;;;25.38;15.05;;;2.80;99.90;;;;;;5082970;28;20272;-79
2021/01/02 05:44:32;;;;;;;18.35;13.52;;;2.80;99.90;;;;;;5074435;28;20455;-79
2021/01/02 05:46:59;;;;;;;18.98;12.90;;;2.80;99.90;;;;;;5076155;28;20307;-79
2021/01/02 05:49:36;;;;;;;17.83;13.05;;;2.80;99.90;;;;;;5076210;28;20284;-80
2021/01/02 05:52:05;;;;;;;20.20;13.45;;;2.80;99.90;;;;;;5075968;28;20238;-80
2021/01/02 05:54:32;;;;;;;20.42;14.50;;;2.90;99.90;;;;;;5094132;28;20216;-80
2021/01/02 05:57:00;;;;;;;20.27;13.02;;;2.90;99.90;;;;;;5094193;28;20284;-80
2021/01/02 05:59:28;;;;;;;17.17;12.70;;;2.90;99.90;;;;;;5096251;28;20556;-79
2021/01/02 06:01:54;;;;;;;15.50;11.77;;;2.90;99.90;;;;;;5096159;28;20192;-80
2021/01/02 06:04:21;;;;;;;19.13;13.03;;;3.00;99.90;;;;;;5096172;28;20196;-80
2021/01/02 06:07:06;;;;;;;18.33;13.35;;;3.00;99.90;;;;;;5095707;28;20512;-80
2021/01/02 06:09:33;;;;;;;17.58;12.80;;;3.00;99.90;;;;;;5096184;28;20191;-79
2021/01/02 06:12:03;;;;;;;16.85;12.95;;;3.00;99.90;;;;;;5095989;28;20608;-79
2021/01/02 06:14:34;;;;;;;12.77;10.73;;;3.00;99.90;;;;;;5095912;28;20203;-79
2021/01/02 06:17:06;;;;;;;17.85;11.68;;;3.00;99.90;;;;;;5095824;28;20212;-78
2021/01/02 06:19:36;;;;;;;17.00;12.25;;;3.00;99.90;;;;;;5095740;28;20185;-78
2021/01/02 06:22:03;;;;;;;16.95;12.43;;;3.00;99.90;;;;;;5075660;28;20343;-78
2021/01/02 06:24:29;;;;;;;18.38;12.98;;;3.00;99.90;;;;;;5075487;28;20232;-80
2021/01/02 06:26:58;;;;;;;15.00;11.27;;;3.00;99.90;;;;;;5075476;28;20312;-79
2021/01/02 06:29:25;;;;;;;18.02;11.65;;;3.00;99.90;;;;;;5075169;28;20581;-79
2021/01/02 06:31:51;;;;;;;15.55;11.45;;;3.00;99.90;;;;;;5074992;28;20228;-79
2021/01/02 06:34:17;;;;;;;17.52;12.00;;;3.00;99.90;;;;;;5075166;28;20719;-79
2021/01/02 06:36:44;;;;;;;15.43;11.75;;;3.00;99.90;;;;;;5075003;28;20232;-79
2021/01/02 06:39:17;;;;;;;17.58;12.15;;;3.10;99.90;;;;;;5075074;28;20334;-79
2021/01/02 06:41:43;;;;;;;13.88;11.13;;;3.10;99.90;;;;;;5075158;28;20349;-79
2021/01/02 06:44:09;;;;;;;14.80;10.20;;;3.10;99.90;;;;;;5074809;28;20283;-79
2021/01/02 06:46:36;;;;;;;16.20;11.55;;;3.10;99.90;;;;;;5110576;28;20298;-79
2021/01/02 06:49:32;;;;;;;15.98;11.90;;;3.20;99.90;;;;;;5115653;28;20226;-80
2021/01/02 06:51:58;;;;;;;17.05;10.70;;;3.20;99.90;;;;;;5115722;28;20191;-79
2021/01/02 06:54:24;;;;;;;14.05;10.68;;;3.10;99.90;;;;;;5097949;28;20652;-79
2021/01/02 06:57:02;;;;;;;15.85;11.55;;;3.10;99.90;;;;;;5094005;28;20195;-79
2021/01/02 06:59:28;;;;;;;16.23;11.27;;;3.00;99.90;;;;;;5095178;28;20562;-79
2021/01/02 07:01:54;;;;;;;16.48;12.70;;;3.00;99.90;;;;;;5094395;28;20717;-79
2021/01/02 07:04:38;;;;;;;14.40;11.73;;;3.00;99.90;;;;;;5094713;28;20279;-78
2021/01/02 07:07:05;;;;;;;13.10;10.90;;;2.90;99.90;;;;;;5074767;28;20251;-79
2021/01/02 07:09:32;;;;;;;17.30;12.23;;;3.00;99.90;;;;;;5074084;28;20189;-79
2021/01/02 07:12:15;;;;;;;16.58;12.85;;;3.00;99.90;;;;;;5074731;28;20272;-79
2021/01/02 07:14:42;;;;;;;15.10;12.07;;;2.90;99.90;;;;;;5074278;28;20193;-79
2021/01/02 07:17:12;;;;;;;16.80;12.23;;;2.90;99.90;;;;;;5074447;28;20315;-79
2021/01/02 07:19:47;;;;;;;16.40;12.38;;;2.90;99.90;;;;;;5074618;28;20549;-78
2021/01/02 07:22:25;;;;;;;18.02;12.70;;;2.90;99.90;;;;;;5094799;28;20188;-78
2021/01/02 07:24:53;;;;;;;15.10;11.82;;;3.00;99.90;;;;;;5094622;28;20195;-79
2021/01/02 07:27:21;;;;;;;18.63;12.80;;;3.00;99.90;;;;;;5094475;28;20212;-79
2021/01/02 07:29:49;;;;;;;17.33;12.20;;;3.00;99.90;;;;;;5094413;28;20199;-79
2021/01/02 07:32:17;;;;;;;16.52;12.52;;;3.10;99.90;;;;;;5094357;28;20271;-79
2021/01/02 07:34:47;;;;;;;17.42;12.13;;;3.10;99.90;;;;;;5094293;28;20284;-80
2021/01/02 07:37:14;;;;;;;16.25;11.77;;;3.10;99.90;;;;;;5094409;28;20626;-80
2021/01/02 07:39:41;;;;;;;19.77;13.40;;;3.10;99.90;;;;;;5094156;28;20684;-80
2021/01/02 07:42:09;;;;;;;17.55;12.10;;;3.10;99.90;;;;;;5094465;28;20242;-79
2021/01/02 07:44:37;;;;;;;14.90;11.00;;;3.10;99.90;;;;;;5094915;28;20219;-79
2021/01/02 07:47:03;;;;;;;15.20;11.27;;;3.10;99.90;;;;;;5114212;28;20315;-79
2021/01/02 07:49:29;;;;;;;15.98;11.77;;;3.20;99.90;;;;;;5114547;28;20280;-80
2021/01/02 07:51:56;;;;;;;18.60;11.52;;;3.20;99.90;;;;;;5114064;28;20666;-78
2021/01/02 07:54:36;;;;;;;18.77;13.95;;;3.20;99.90;;;;;;5096964;28;20275;-79
2021/01/02 07:57:06;;;;;;;17.42;12.40;;;3.20;99.90;;;;;;5094097;28;20192;-79
2021/01/02 07:59:34;;;;;;;16.08;11.82;;;3.20;99.90;;;;;;5093754;28;20241;-80
2021/01/02 08:02:01;;;;;;;19.73;13.05;;;3.20;99.90;;;;;;5093984;28;20184;-80
2021/01/02 08:04:28;;;;;;;14.93;11.05;;;3.30;99.90;;;;;;5093887;28;20616;-80
2021/01/02 08:06:57;;;;;;;16.77;10.93;;;3.40;99.90;;;;;;5093403;28;20758;-79
2021/01/02 08:09:23;;;;;;;15.68;11.85;;;3.40;99.90;;;;;;5093717;28;20192;-79
2021/01/02 08:11:51;;;;;;;14.45;11.77;;;3.40;99.90;;;;;;5093674;28;20275;-78
2021/01/02 08:14:17;;;;;;;17.17;12.55;;;3.50;99.90;;;;;;5091485;28;20189;-80
2021/01/02 08:16:55;;;;;;;19.30;13.52;;;3.50;99.90;;;;;;5093586;28;20686;-79
2021/01/02 08:19:21;;;;;;;17.48;12.18;;;3.50;99.90;;;;;;5093427;28;20275;-79
2021/01/02 08:21:48;;;;;;;18.50;12.30;;;3.50;99.90;;;;;;5093442;28;20193;-79
2021/01/02 08:24:15;;;;;;;18.88;13.70;;;3.50;99.90;;;;;;5093395;28;20271;-79
2021/01/02 08:26:42;;;;;;;18.23;12.32;;;3.50;99.90;;;;;;5093183;28;20239;-79
2021/01/02 08:29:08;;;;;;;19.27;11.73;;;3.60;99.90;;;;;;5093117;28;20279;-80
2021/01/02 08:31:36;;;;;;;17.80;12.20;;;3.50;99.90;;;;;;5092979;28;20671;-81
2021/01/02 08:34:04;;;;;;;16.17;11.25;;;3.50;99.90;;;;;;5093216;28;20302;-81
2021/01/02 08:36:30;;;;;;;17.10;11.05;;;3.60;99.90;;;;;;5093000;28;20283;-81
2021/01/02 08:38:57;;;;;;;16.92;11.30;;;3.70;99.90;;;;;;5092739;28;20557;-81
2021/01/02 08:41:26;;;;;;;15.52;11.77;;;3.80;99.90;;;;;;5093206;28;20280;-80
2021/01/02 08:43:55;;;;;;;16.80;12.27;;;3.90;99.90;;;;;;5093009;28;20258;-81
2021/01/02 08:46:24;;;;;;;14.77;10.95;;;3.90;99.90;;;;;;5092802;28;20265;-81
2021/01/02 08:48:51;;;;;;;12.30;10.77;;;4.00;99.90;;;;;;5091858;28;20192;-79
2021/01/02 08:51:24;;;;;;;12.82;9.85;;;4.00;99.90;;;;;;5098351;28;20317;-79
2021/01/02 08:53:50;;;;;;;13.50;10.65;;;4.00;99.90;;;;;;5101054;28;20185;-79
2021/01/02 08:56:25;;;;;;;15.90;12.95;;;4.10;99.90;;;;;;5103534;28;20273;-79
2021/01/02 08:58:51;;;;;;;18.83;12.45;;;4.10;99.90;;;;;;5103474;28;20186;-79
2021/01/02 09:01:17;;;;;;;13.55;9.65;;;4.10;99.90;;;;;;5106746;28;20646;-79
2021/01/02 09:03:43;;;;;;;14.68;10.48;;;4.10;99.90;;;;;;5112922;28;20630;-79
2021/01/02 09:06:22;;;;;;;13.00;10.10;;;4.20;99.90;;;;;;5098691;28;20631;-80
2021/01/02 09:08:59;;;;;;;13.98;10.32;;;4.10;99.90;;;;;;5092596;28;20273;-80
2021/01/02 09:11:27;;;;;;;10.98;9.15;;;4.10;99.90;;;;;;5092867;28;20188;-80
2021/01/02 09:14:05;;;;;;;11.93;10.05;;;4.00;99.90;;;;;;5092345;28;20227;-80
2021/01/02 09:16:31;;;;;;;13.13;10.00;;;3.90;99.90;;;;;;5086841;28;20189;-81
2021/01/02 09:18:57;;;;;;;15.45;10.90;;;3.80;99.90;;;;;;5094088;28;20192;-80
2021/01/02 09:21:25;;;;;;;13.98;10.63;;;3.80;99.90;;;;;;5096907;28;20219;-80
2021/01/02 09:23:53;;;;;;;12.25;9.48;;;3.80;99.90;;;;;;5096110;28;20283;-80
2021/01/02 09:26:24;;;;;;;12.88;10.00;;;3.90;99.90;;;;;;5096195;28;20216;-81
2021/01/02 09:28:53;;;;;;;12.98;10.38;;;4.00;99.90;;;;;;5095924;28;20185;-80
2021/01/02 09:31:20;;;;;;;14.57;10.82;;;4.00;99.90;;;;;;5096661;28;20688;-79
2021/01/02 09:33:46;;;;;;;13.52;10.55;;;4.00;99.90;;;;;;5110147;28;20266;-78
2021/01/02 09:36:13;;;;;;;13.52;10.52;;;4.00;99.90;;;;;;5116835;28;20287;-78
2021/01/02 09:38:40;;;;;;;14.52;10.55;;;4.00;99.90;;;;;;5108467;28;20596;-78
2021/01/02 09:41:07;;;;;;;17.73;12.45;;;4.00;99.90;;;;;;5097570;28;20223;-80
2021/01/02 09:43:33;;;;;;;16.48;11.75;;;3.90;99.90;;;;;;5096357;28;20204;-79
2021/01/02 09:45:59;;;;;;;19.88;11.82;;;3.90;99.90;;;;;;5108891;28;20211;-79
2021/01/02 09:48:25;;;;;;;15.73;11.88;;;3.90;99.90;;;;;;5116281;28;20663;-79
2021/01/02 09:50:52;;;;;;;19.52;12.27;;;3.90;99.90;;;;;;5116643;28;20279;-79
2021/01/02 09:53:18;;;;;;;15.63;10.35;;;4.10;99.90;;;;;;5107437;28;20181;-80
2021/01/02 09:55:44;;;;;;;17.17;11.23;;;4.20;99.90;;;;;;5096474;28;20295;-86
2021/01/02 09:58:12;;;;;;;17.77;12.15;;;4.30;99.90;;;;;;5096229;28;20785;-76
2021/01/02 10:00:38;;;;;;;16.13;11.98;;;4.40;99.90;;;;;;5093619;28;20279;-76
2021/01/02 10:03:07;;;;;;;13.73;10.60;;;4.50;99.90;;;;;;5096006;28;20808;-76
2021/01/02 10:05:33;;;;;;;14.85;10.68;;;4.60;99.90;;;;;;5093964;28;20573;-76
2021/01/02 10:07:59;;;;;;;18.50;11.88;;;4.80;99.90;;;;;;5094065;28;20307;-76
2021/01/02 10:10:25;;;;;;;15.97;11.23;;;4.90;99.90;;;;;;5095276;28;20180;-76
2021/01/02 10:12:51;;;;;;;14.07;10.37;;;5.00;99.90;;;;;;5094756;28;20485;-77
2021/01/02 10:15:18;;;;;;;18.73;11.65;;;5.10;99.90;;;;;;5094706;28;20583;-79
2021/01/02 10:17:44;;;;;;;15.90;11.77;;;5.20;99.90;;;;;;5094547;28;20185;-80
2021/01/02 10:20:13;;;;;;;15.60;11.10;;;5.30;99.90;;;;;;5099328;28;20201;-81
2021/01/02 10:22:39;;;;;;;14.57;10.98;;;5.40;99.90;;;;;;5094694;28;20652;-78
2021/01/02 10:25:06;;;;;;;16.30;11.95;;;5.50;99.90;;;;;;5089926;28;20721;-73
2021/01/02 10:27:33;;;;;;;18.40;11.90;;;5.50;99.90;;;;;;5101572;28;20284;-73
2021/01/02 10:29:59;;;;;;;13.57;10.95;;;5.60;99.90;;;;;;5100539;28;20270;-73
2021/01/02 10:32:29;;;;;;;18.63;12.35;;;5.60;99.90;;;;;;5092257;28;20280;-72
2021/01/02 10:34:56;;;;;;;15.43;12.35;;;5.70;99.90;;;;;;5097731;28;20193;-73
2021/01/02 10:37:24;;;;;;;16.92;11.90;;;5.80;99.90;;;;;;5094975;28;20275;-74
2021/01/02 10:39:51;;;;;;;14.20;10.55;;;5.80;99.90;;;;;;5098172;28;20259;-74
2021/01/02 10:42:21;;;;;;;12.52;10.40;;;5.80;99.90;;;;;;5106448;28;20603;-74
2021/01/02 10:44:47;;;;;;;13.43;10.65;;;5.80;99.90;;;;;;5094692;28;20193;-76
2021/01/02 10:47:17;;;;;;;12.13;10.10;;;5.70;99.90;;;;;;5093740;28;20250;-74
2021/01/02 10:49:45;;;;;;;12.73;10.45;;;5.60;99.90;;;;;;5095591;28;20196;-73
2021/01/02 10:52:11;;;;;;;13.70;10.93;;;5.50;99.90;;;;;;5101335;28;20216;-73
2021/01/02 10:54:37;;;;;;;13.43;11.47;;;5.40;99.90;;;;;;5105288;28;20184;-74
2021/01/02 10:57:03;;;;;;;12.90;9.90;;;5.20;99.90;;;;;;5102556;28;20482;-74
2021/01/02 10:59:29;;;;;;;12.80;10.55;;;5.10;99.90;;;;;;5104455;28;20180;-74
2021/01/02 11:01:56;;;;;;;16.40;12.23;;;4.90;99.90;;;;;;5104836;28;20674;-73
2021/01/02 11:04:26;;;;;;;16.70;12.75;;;4.80;99.90;;;;;;5103978;28;20500;-74
2021/01/02 11:06:54;;;;;;;16.27;11.85;;;4.70;99.90;;;;;;5102557;28;20196;-74
2021/01/02 11:09:22;;;;;;;13.30;11.15;;;4.60;99.90;;;;;;5101838;28;20294;-73
2021/01/02 11:11:48;;;;;;;17.40;12.30;;;4.50;99.90;;;;;;5094217;28;20275;-74
2021/01/02 11:14:14;;;;;;;16.00;11.48;;;4.40;99.90;;;;;;5094330;28;20592;-74
2021/01/02 11:16:43;;;;;;;16.77;12.13;;;4.30;99.90;;;;;;5093596;28;20686;-76
2021/01/02 11:19:12;;;;;;;13.70;11.20;;;4.30;99.90;;;;;;5092755;28;20184;-73
2021/01/02 11:21:39;;;;;;;17.15;12.20;;;4.20;99.90;;;;;;5093925;28;20192;-74
2021/01/02 11:24:07;;;;;;;14.27;11.20;;;4.30;99.90;;;;;;5092595;28;20192;-74
2021/01/02 11:26:34;;;;;;;17.10;11.32;;;4.40;99.90;;;;;;5091953;28;20969;-74
2021/01/02 11:29:01;;;;;;;13.75;9.90;;;4.40;99.90;;;;;;5093680;28;20276;-74
2021/01/02 11:31:31;;;;;;;13.90;10.75;;;4.50;99.90;;;;;;5094252;28;20220;-73
2021/01/02 11:33:57;;;;;;;14.68;10.73;;;4.60;99.90;;;;;;5094110;28;20318;-74
2021/01/02 11:36:24;;;;;;;15.85;11.82;;;4.50;99.90;;;;;;5094165;28;20227;-73
2021/01/02 11:38:50;;;;;;;17.35;11.25;;;4.50;99.90;;;;;;5094107;28;20228;-74
2021/01/02 11:41:20;;;;;;;15.48;11.55;;;4.50;99.90;;;;;;5078885;28;20189;-73
2021/01/02 11:43:46;;;;;;;18.05;12.05;;;4.40;99.90;;;;;;5073967;28;20650;-74
2021/01/02 11:46:13;;;;;;;15.98;12.45;;;4.30;99.90;;;;;;5073645;28;20199;-74
2021/01/02 11:48:41;;;;;;;15.82;11.93;;;4.30;99.90;;;;;;5083817;28;20184;-74
2021/01/02 11:51:12;;;;;;;15.57;11.68;;;4.20;99.90;;;;;;5114343;28;20611;-74
2021/01/02 11:53:39;;;;;;;18.42;12.18;;;4.10;99.90;;;;;;5114363;28;20191;-74
2021/01/02 11:56:05;;;;;;;18.80;12.68;;;4.10;99.90;;;;;;5114328;28;20244;-74
2021/01/02 11:58:33;;;;;;;16.15;11.68;;;4.10;99.90;;;;;;5114096;28;20651;-74
2021/01/02 12:00:59;;;;;;;19.27;15.40;;;4.00;99.90;;;;;;5113965;28;20635;-74
2021/01/02 12:03:25;;;;;;;17.38;12.75;;;4.00;99.90;;;;;;5114302;28;20266;-74
2021/01/02 12:05:51;;;;;;;16.35;12.43;;;4.00;99.90;;;;;;5113876;28;20756;-74
2021/01/02 12:08:17;;;;;;;22.55;14.85;;;4.00;99.90;;;;;;5114040;28;20262;-74
2021/01/02 12:10:44;;;;;;;20.27;13.90;;;4.00;99.90;;;;;;5114082;28;20283;-74
2021/01/02 12:13:10;;;;;;;17.55;12.55;;;4.00;99.90;;;;;;5113910;28;20276;-74
2021/01/02 12:15:36;;;;;;;15.60;12.10;;;4.00;99.90;;;;;;5113866;28;20223;-74
2021/01/02 12:18:03;;;;;;;18.45;12.38;;;4.00;99.90;;;;;;5113862;28;20452;-74
2021/01/02 12:20:29;;;;;;;22.42;14.52;;;4.00;99.90;;;;;;5113004;28;20192;-74
2021/01/02 12:22:55;;;;;;;17.93;12.93;;;4.00;99.90;;;;;;5093276;28;20200;-74
2021/01/02 12:25:23;;;;;;;20.70;14.20;;;4.00;99.90;;;;;;5093444;28;20483;-74
2021/01/02 12:27:49;;;;;;;22.35;14.20;;;4.00;99.90;;;;;;5093142;28;20212;-73
2021/01/02 12:30:16;;;;;;;20.53;14.50;;;3.90;99.90;;;;;;5093052;28;20627;-74
2021/01/02 12:32:43;;;;;;;24.73;14.63;;;3.90;99.90;;;;;;5093270;28;20511;-74
2021/01/02 12:35:10;;;;;;;27.50;16.10;;;4.00;99.90;;;;;;5093380;28;20646;-73
2021/01/02 12:37:36;;;;;;;21.90;15.77;;;4.00;99.90;;;;;;5093092;28;20196;-73
2021/01/02 12:40:03;;;;;;;22.75;14.43;;;4.00;99.90;;;;;;5088266;28;20648;-74
2021/01/02 12:42:29;;;;;;;19.25;14.25;;;4.10;99.90;;;;;;5072684;28;20276;-73
2021/01/02 12:44:55;;;;;;;20.20;14.70;;;4.10;99.90;;;;;;5072651;28;20225;-74
2021/01/02 12:47:21;;;;;;;19.77;14.23;;;4.30;99.90;;;;;;5072657;28;20554;-73
2021/01/02 12:49:48;;;;;;;19.50;14.45;;;4.30;99.90;;;;;;5101957;28;20226;-73
2021/01/02 12:52:15;;;;;;;17.30;12.88;;;4.40;99.90;;;;;;5113123;28;20711;-74